sensor_id;sensor_type;location;lat;lon;timestamp;P1;durP1;ratioP1;P2;durP2;ratioP2
20593;SDS011;10455;48.732;10.266;2023-04-25T00:01:59;7.00;;;6.40;;
20593;SDS011;10455;48.732;10.266;2023-04-25T00:07:03;6.77;;;6.13;;
20593;SDS011;10455;48.732;10.266;2023-04-25T00:12:05;6.30;;;5.80;;
20593;SDS011;10455;48.732;10.266;2023-04-25T00:17:07;6.63;;;6.03;;
20593;SDS011;10455;48.732;10.266;2023-04-25T00:22:10;6.80;;;6.30;;
20593;SDS011;10455;48.732;10.266;2023-04-25T00:27:13;7.00;;;6.50;;
20593;SDS011;10455;48.732;10.266;2023-04-25T00:32:15;7.00;;;6.13;;
20593;SDS011;10455;48.732;10.266;2023-04-25T00:37:18;7.33;;;6.77;;
20593;SDS011;10455;48.732;10.266;2023-04-25T00:42:20;7.07;;;6.37;;
20593;SDS011;10455;48.732;10.266;2023-04-25T00:47:22;7.30;;;6.63;;
20593;SDS011;10455;48.732;10.266;2023-04-25T00:52:27;7.83;;;7.17;;
20593;SDS011;10455;48.732;10.266;2023-04-25T00:57:29;8.03;;;7.33;;
20593;SDS011;10455;48.732;10.266;2023-04-25T01:02:31;7.80;;;7.20;;
20593;SDS011;10455;48.732;10.266;2023-04-25T01:07:35;7.60;;;7.00;;
20593;SDS011;10455;48.732;10.266;2023-04-25T01:12:37;7.73;;;7.03;;
20593;SDS011;10455;48.732;10.266;2023-04-25T01:17:39;8.13;;;7.10;;
20593;SDS011;10455;48.732;10.266;2023-04-25T01:22:44;8.40;;;6.93;;
20593;SDS011;10455;48.732;10.266;2023-04-25T01:27:46;8.40;;;7.60;;
20593;SDS011;10455;48.732;10.266;2023-04-25T01:32:48;10.77;;;7.80;;
20593;SDS011;10455;48.732;10.266;2023-04-25T01:37:52;9.10;;;7.50;;
20593;SDS011;10455;48.732;10.266;2023-04-25T01:42:54;8.23;;;7.60;;
20593;SDS011;10455;48.732;10.266;2023-04-25T01:47:56;10.00;;;6.90;;
20593;SDS011;10455;48.732;10.266;2023-04-25T01:53:00;7.87;;;7.07;;
20593;SDS011;10455;48.732;10.266;2023-04-25T01:58:02;7.77;;;7.00;;
20593;SDS011;10455;48.732;10.266;2023-04-25T02:03:09;7.30;;;6.43;;
20593;SDS011;10455;48.732;10.266;2023-04-25T02:08:12;6.80;;;6.10;;
20593;SDS011;10455;48.732;10.266;2023-04-25T02:13:14;8.57;;;6.50;;
20593;SDS011;10455;48.732;10.266;2023-04-25T02:18:16;7.43;;;6.70;;
20593;SDS011;10455;48.732;10.266;2023-04-25T02:23:19;8.30;;;6.50;;
20593;SDS011;10455;48.732;10.266;2023-04-25T02:28:21;7.73;;;6.70;;
20593;SDS011;10455;48.732;10.266;2023-04-25T02:33:24;7.83;;;7.03;;
20593;SDS011;10455;48.732;10.266;2023-04-25T02:38:27;8.83;;;7.00;;
20593;SDS011;10455;48.732;10.266;2023-04-25T02:43:29;7.20;;;6.53;;
20593;SDS011;10455;48.732;10.266;2023-04-25T02:48:31;7.90;;;7.20;;
20593;SDS011;10455;48.732;10.266;2023-04-25T02:53:34;6.70;;;6.20;;
20593;SDS011;10455;48.732;10.266;2023-04-25T02:58:36;7.60;;;6.47;;
20593;SDS011;10455;48.732;10.266;2023-04-25T03:03:38;7.37;;;6.67;;
20593;SDS011;10455;48.732;10.266;2023-04-25T03:08:41;8.73;;;6.90;;
20593;SDS011;10455;48.732;10.266;2023-04-25T03:13:43;7.33;;;6.60;;
20593;SDS011;10455;48.732;10.266;2023-04-25T03:18:45;8.20;;;7.40;;
20593;SDS011;10455;48.732;10.266;2023-04-25T03:23:48;8.07;;;7.27;;
20593;SDS011;10455;48.732;10.266;2023-04-25T03:28:50;13.17;;;7.43;;
20593;SDS011;10455;48.732;10.266;2023-04-25T03:33:52;8.33;;;7.57;;
20593;SDS011;10455;48.732;10.266;2023-04-25T03:38:55;7.87;;;7.23;;
20593;SDS011;10455;48.732;10.266;2023-04-25T03:43:57;8.73;;;7.93;;
20593;SDS011;10455;48.732;10.266;2023-04-25T03:48:59;9.50;;;8.10;;
20593;SDS011;10455;48.732;10.266;2023-04-25T03:54:02;8.20;;;7.50;;
20593;SDS011;10455;48.732;10.266;2023-04-25T03:59:04;8.30;;;7.50;;
20593;SDS011;10455;48.732;10.266;2023-04-25T04:04:06;8.93;;;8.03;;
20593;SDS011;10455;48.732;10.266;2023-04-25T04:09:09;9.13;;;8.33;;
20593;SDS011;10455;48.732;10.266;2023-04-25T04:14:12;12.17;;;8.90;;
20593;SDS011;10455;48.732;10.266;2023-04-25T04:19:14;8.83;;;8.03;;
20593;SDS011;10455;48.732;10.266;2023-04-25T04:24:17;9.37;;;8.33;;
20593;SDS011;10455;48.732;10.266;2023-04-25T04:29:19;8.30;;;7.60;;
20593;SDS011;10455;48.732;10.266;2023-04-25T04:34:21;8.27;;;7.53;;
20593;SDS011;10455;48.732;10.266;2023-04-25T04:39:26;9.53;;;7.83;;
20593;SDS011;10455;48.732;10.266;2023-04-25T04:44:29;8.60;;;7.77;;
20593;SDS011;10455;48.732;10.266;2023-04-25T04:49:32;9.33;;;7.60;;
20593;SDS011;10455;48.732;10.266;2023-04-25T04:54:36;10.53;;;7.33;;
20593;SDS011;10455;48.732;10.266;2023-04-25T04:59:38;8.50;;;7.30;;
20593;SDS011;10455;48.732;10.266;2023-04-25T05:04:40;7.90;;;7.10;;
20593;SDS011;10455;48.732;10.266;2023-04-25T05:09:43;7.23;;;6.53;;
20593;SDS011;10455;48.732;10.266;2023-04-25T05:14:45;8.43;;;7.67;;
20593;SDS011;10455;48.732;10.266;2023-04-25T05:19:47;8.47;;;6.73;;
20593;SDS011;10455;48.732;10.266;2023-04-25T05:24:50;7.43;;;6.73;;
20593;SDS011;10455;48.732;10.266;2023-04-25T05:29:52;7.47;;;6.73;;
20593;SDS011;10455;48.732;10.266;2023-04-25T05:34:54;7.30;;;6.70;;
20593;SDS011;10455;48.732;10.266;2023-04-25T05:39:57;8.07;;;7.37;;
20593;SDS011;10455;48.732;10.266;2023-04-25T05:44:59;8.53;;;7.73;;
20593;SDS011;10455;48.732;10.266;2023-04-25T05:50:02;9.10;;;8.30;;
20593;SDS011;10455;48.732;10.266;2023-04-25T05:55:06;9.43;;;8.53;;
20593;SDS011;10455;48.732;10.266;2023-04-25T06:00:08;8.57;;;7.87;;
20593;SDS011;10455;48.732;10.266;2023-04-25T06:05:11;7.70;;;7.00;;
20593;SDS011;10455;48.732;10.266;2023-04-25T06:10:15;6.17;;;5.67;;
20593;SDS011;10455;48.732;10.266;2023-04-25T06:15:17;6.83;;;6.30;;
20593;SDS011;10455;48.732;10.266;2023-04-25T06:20:19;7.17;;;6.40;;
20593;SDS011;10455;48.732;10.266;2023-04-25T06:25:24;7.37;;;6.63;;
20593;SDS011;10455;48.732;10.266;2023-04-25T06:30:26;7.80;;;6.40;;
20593;SDS011;10455;48.732;10.266;2023-04-25T06:35:28;7.70;;;6.93;;
20593;SDS011;10455;48.732;10.266;2023-04-25T06:40:31;6.70;;;6.10;;
20593;SDS011;10455;48.732;10.266;2023-04-25T06:45:33;6.50;;;5.97;;
20593;SDS011;10455;48.732;10.266;2023-04-25T06:50:35;6.57;;;6.07;;
20593;SDS011;10455;48.732;10.266;2023-04-25T06:55:38;6.90;;;6.30;;
20593;SDS011;10455;48.732;10.266;2023-04-25T07:00:40;6.80;;;6.20;;
20593;SDS011;10455;48.732;10.266;2023-04-25T07:05:42;6.63;;;6.03;;
20593;SDS011;10455;48.732;10.266;2023-04-25T07:10:47;6.37;;;5.87;;
20593;SDS011;10455;48.732;10.266;2023-04-25T07:15:49;6.10;;;5.27;;
20593;SDS011;10455;48.732;10.266;2023-04-25T07:20:51;6.50;;;5.83;;
20593;SDS011;10455;48.732;10.266;2023-04-25T07:25:54;7.33;;;6.63;;
20593;SDS011;10455;48.732;10.266;2023-04-25T07:30:56;7.17;;;6.07;;
20593;SDS011;10455;48.732;10.266;2023-04-25T07:35:58;6.15;;;5.65;;
20593;SDS011;10455;48.732;10.266;2023-04-25T07:41:01;5.88;;;5.47;;
20593;SDS011;10455;48.732;10.266;2023-04-25T07:46:03;5.75;;;5.13;;
20593;SDS011;10455;48.732;10.266;2023-04-25T07:51:05;5.55;;;5.05;;
20593;SDS011;10455;48.732;10.266;2023-04-25T07:56:08;6.60;;;6.00;;
20593;SDS011;10455;48.732;10.266;2023-04-25T08:01:10;5.55;;;5.15;;
20593;SDS011;10455;48.732;10.266;2023-04-25T08:06:12;7.10;;;6.23;;
20593;SDS011;10455;48.732;10.266;2023-04-25T08:11:15;5.97;;;5.47;;
20593;SDS011;10455;48.732;10.266;2023-04-25T08:16:17;5.40;;;5.00;;
20593;SDS011;10455;48.732;10.266;2023-04-25T08:21:19;5.32;;;5.03;;
20593;SDS011;10455;48.732;10.266;2023-04-25T08:26:23;5.20;;;4.80;;
20593;SDS011;10455;48.732;10.266;2023-04-25T08:31:25;5.90;;;5.50;;
20593;SDS011;10455;48.732;10.266;2023-04-25T08:36:27;5.73;;;5.30;;
20593;SDS011;10455;48.732;10.266;2023-04-25T08:41:30;6.03;;;5.63;;
20593;SDS011;10455;48.732;10.266;2023-04-25T08:46:32;6.50;;;5.97;;
20593;SDS011;10455;48.732;10.266;2023-04-25T08:51:36;5.60;;;5.27;;
20593;SDS011;10455;48.732;10.266;2023-04-25T08:56:47;5.90;;;5.50;;
20593;SDS011;10455;48.732;10.266;2023-04-25T09:01:49;6.80;;;6.40;;
20593;SDS011;10455;48.732;10.266;2023-04-25T09:06:51;6.93;;;6.43;;
20593;SDS011;10455;48.732;10.266;2023-04-25T09:11:54;6.37;;;5.87;;
20593;SDS011;10455;48.732;10.266;2023-04-25T09:16:57;6.63;;;6.13;;
20593;SDS011;10455;48.732;10.266;2023-04-25T09:22:00;6.50;;;5.90;;
20593;SDS011;10455;48.732;10.266;2023-04-25T09:27:05;5.20;;;4.90;;
20593;SDS011;10455;48.732;10.266;2023-04-25T09:32:15;5.67;;;5.37;;
20593;SDS011;10455;48.732;10.266;2023-04-25T09:37:19;6.07;;;5.67;;
20593;SDS011;10455;48.732;10.266;2023-04-25T09:42:24;5.33;;;4.97;;
20593;SDS011;10455;48.732;10.266;2023-04-25T09:47:26;5.03;;;4.73;;
20593;SDS011;10455;48.732;10.266;2023-04-25T09:52:29;5.63;;;5.33;;
20593;SDS011;10455;48.732;10.266;2023-04-25T09:57:32;5.97;;;5.57;;
20593;SDS011;10455;48.732;10.266;2023-04-25T10:02:34;5.10;;;4.80;;
20593;SDS011;10455;48.732;10.266;2023-04-25T10:07:39;4.28;;;4.07;;
20593;SDS011;10455;48.732;10.266;2023-04-25T10:12:44;4.70;;;4.37;;
20593;SDS011;10455;48.732;10.266;2023-04-25T10:17:46;4.28;;;3.97;;
20593;SDS011;10455;48.732;10.266;2023-04-25T10:22:50;4.47;;;4.18;;
20593;SDS011;10455;48.732;10.266;2023-04-25T10:27:58;5.28;;;4.97;;
20593;SDS011;10455;48.732;10.266;2023-04-25T10:33:01;5.27;;;4.97;;
20593;SDS011;10455;48.732;10.266;2023-04-25T10:38:03;5.22;;;4.93;;
20593;SDS011;10455;48.732;10.266;2023-04-25T10:48:37;5.10;;;4.80;;
20593;SDS011;10455;48.732;10.266;2023-04-25T10:53:44;5.40;;;5.00;;
20593;SDS011;10455;48.732;10.266;2023-04-25T10:58:48;6.13;;;5.72;;
20593;SDS011;10455;48.732;10.266;2023-04-25T11:03:56;5.97;;;5.47;;
20593;SDS011;10455;48.732;10.266;2023-04-25T11:09:00;6.70;;;6.20;;
20593;SDS011;10455;48.732;10.266;2023-04-25T11:14:04;7.20;;;6.60;;
20593;SDS011;10455;48.732;10.266;2023-04-25T11:19:06;6.80;;;6.17;;
20593;SDS011;10455;48.732;10.266;2023-04-25T11:24:08;7.00;;;6.40;;
20593;SDS011;10455;48.732;10.266;2023-04-25T11:29:12;7.90;;;7.18;;
20593;SDS011;10455;48.732;10.266;2023-04-25T11:34:16;6.95;;;6.43;;
20593;SDS011;10455;48.732;10.266;2023-04-25T11:39:18;7.82;;;7.10;;
20593;SDS011;10455;48.732;10.266;2023-04-25T11:44:22;7.15;;;6.65;;
20593;SDS011;10455;48.732;10.266;2023-04-25T11:49:27;7.33;;;6.73;;
20593;SDS011;10455;48.732;10.266;2023-04-25T11:54:31;7.50;;;6.85;;
20593;SDS011;10455;48.732;10.266;2023-04-25T11:59:38;7.50;;;6.90;;
20593;SDS011;10455;48.732;10.266;2023-04-25T12:04:40;7.00;;;6.50;;
20593;SDS011;10455;48.732;10.266;2023-04-25T12:09:42;8.13;;;7.23;;
20593;SDS011;10455;48.732;10.266;2023-04-25T12:14:47;7.90;;;7.20;;
20593;SDS011;10455;48.732;10.266;2023-04-25T12:19:49;7.18;;;6.68;;
20593;SDS011;10455;48.732;10.266;2023-04-25T12:24:51;7.05;;;6.53;;
20593;SDS011;10455;48.732;10.266;2023-04-25T12:29:55;7.10;;;6.50;;
20593;SDS011;10455;48.732;10.266;2023-04-25T12:34:57;6.93;;;6.35;;
20593;SDS011;10455;48.732;10.266;2023-04-25T12:39:59;5.53;;;5.13;;
20593;SDS011;10455;48.732;10.266;2023-04-25T12:45:03;5.63;;;5.23;;
20593;SDS011;10455;48.732;10.266;2023-04-25T12:50:05;6.20;;;5.80;;
20593;SDS011;10455;48.732;10.266;2023-04-25T12:55:07;8.10;;;7.70;;
20593;SDS011;10455;48.732;10.266;2023-04-25T13:00:11;10.90;;;10.30;;
20593;SDS011;10455;48.732;10.266;2023-04-25T13:05:18;10.57;;;9.67;;
20593;SDS011;10455;48.732;10.266;2023-04-25T13:10:20;12.37;;;11.27;;
20593;SDS011;10455;48.732;10.266;2023-04-25T13:15:23;12.43;;;11.20;;
20593;SDS011;10455;48.732;10.266;2023-04-25T13:20:25;9.10;;;8.33;;
20593;SDS011;10455;48.732;10.266;2023-04-25T13:25:27;12.90;;;10.30;;
20593;SDS011;10455;48.732;10.266;2023-04-25T13:30:30;44.87;;;11.57;;
20593;SDS011;10455;48.732;10.266;2023-04-25T13:35:32;11.97;;;7.67;;
20593;SDS011;10455;48.732;10.266;2023-04-25T13:40:35;29.77;;;8.77;;
20593;SDS011;10455;48.732;10.266;2023-04-25T13:45:38;90.78;;;11.30;;
20593;SDS011;10455;48.732;10.266;2023-04-25T13:50:41;31.27;;;7.13;;
20593;SDS011;10455;48.732;10.266;2023-04-25T13:55:43;7.95;;;5.53;;
20593;SDS011;10455;48.732;10.266;2023-04-25T14:00:46;7.43;;;5.10;;
20593;SDS011;10455;48.732;10.266;2023-04-25T14:05:48;7.85;;;5.35;;
20593;SDS011;10455;48.732;10.266;2023-04-25T14:10:50;5.82;;;5.25;;
20593;SDS011;10455;48.732;10.266;2023-04-25T14:15:53;7.18;;;6.47;;
20593;SDS011;10455;48.732;10.266;2023-04-25T14:20:55;6.68;;;6.07;;
20593;SDS011;10455;48.732;10.266;2023-04-25T14:25:57;6.20;;;5.70;;
20593;SDS011;10455;48.732;10.266;2023-04-25T14:31:00;5.90;;;5.30;;
20593;SDS011;10455;48.732;10.266;2023-04-25T14:36:02;6.23;;;5.00;;
20593;SDS011;10455;48.732;10.266;2023-04-25T14:41:04;6.13;;;5.53;;
20593;SDS011;10455;48.732;10.266;2023-04-25T14:46:08;6.32;;;5.72;;
20593;SDS011;10455;48.732;10.266;2023-04-25T14:51:12;4.40;;;4.00;;
20593;SDS011;10455;48.732;10.266;2023-04-25T14:56:14;4.07;;;3.80;;
20593;SDS011;10455;48.732;10.266;2023-04-25T15:01:17;6.97;;;5.90;;
20593;SDS011;10455;48.732;10.266;2023-04-25T15:06:20;8.80;;;6.13;;
20593;SDS011;10455;48.732;10.266;2023-04-25T15:11:22;7.57;;;6.73;;
20593;SDS011;10455;48.732;10.266;2023-04-25T15:16:25;8.57;;;6.43;;
20593;SDS011;10455;48.732;10.266;2023-04-25T15:21:27;13.10;;;9.07;;
20593;SDS011;10455;48.732;10.266;2023-04-25T15:26:29;11.27;;;8.77;;
20593;SDS011;10455;48.732;10.266;2023-04-25T15:31:32;9.50;;;8.50;;
20593;SDS011;10455;48.732;10.266;2023-04-25T15:36:34;16.17;;;9.60;;
20593;SDS011;10455;48.732;10.266;2023-04-25T15:41:36;11.23;;;9.17;;
20593;SDS011;10455;48.732;10.266;2023-04-25T15:46:40;13.60;;;10.47;;
20593;SDS011;10455;48.732;10.266;2023-04-25T15:51:43;11.60;;;7.77;;
20593;SDS011;10455;48.732;10.266;2023-04-25T15:56:45;12.03;;;9.70;;
20593;SDS011;10455;48.732;10.266;2023-04-25T16:01:48;15.43;;;11.03;;
20593;SDS011;10455;48.732;10.266;2023-04-25T16:06:50;11.40;;;9.70;;
20593;SDS011;10455;48.732;10.266;2023-04-25T16:11:52;11.40;;;10.17;;
20593;SDS011;10455;48.732;10.266;2023-04-25T16:16:56;16.77;;;13.63;;
20593;SDS011;10455;48.732;10.266;2023-04-25T16:21:58;10.87;;;8.70;;
20593;SDS011;10455;48.732;10.266;2023-04-25T16:27:01;14.20;;;10.07;;
20593;SDS011;10455;48.732;10.266;2023-04-25T16:32:04;18.30;;;13.20;;
20593;SDS011;10455;48.732;10.266;2023-04-25T16:37:06;20.00;;;13.03;;
20593;SDS011;10455;48.732;10.266;2023-04-25T16:42:08;18.10;;;12.87;;
20593;SDS011;10455;48.732;10.266;2023-04-25T16:47:11;19.90;;;13.00;;
20593;SDS011;10455;48.732;10.266;2023-04-25T16:52:13;17.50;;;12.53;;
20593;SDS011;10455;48.732;10.266;2023-04-25T16:57:15;26.37;;;15.40;;
20593;SDS011;10455;48.732;10.266;2023-04-25T17:02:18;30.53;;;20.60;;
20593;SDS011;10455;48.732;10.266;2023-04-25T17:07:21;36.20;;;20.40;;
20593;SDS011;10455;48.732;10.266;2023-04-25T17:12:23;25.60;;;16.80;;
20593;SDS011;10455;48.732;10.266;2023-04-25T17:17:26;22.30;;;14.73;;
20593;SDS011;10455;48.732;10.266;2023-04-25T17:22:28;34.97;;;18.47;;
20593;SDS011;10455;48.732;10.266;2023-04-25T17:27:30;33.57;;;18.80;;
20593;SDS011;10455;48.732;10.266;2023-04-25T17:32:34;35.10;;;21.00;;
20593;SDS011;10455;48.732;10.266;2023-04-25T17:37:35;38.00;;;20.77;;
20593;SDS011;10455;48.732;10.266;2023-04-25T17:42:37;32.73;;;21.07;;
20593;SDS011;10455;48.732;10.266;2023-04-25T17:47:41;31.63;;;19.17;;
20593;SDS011;10455;48.732;10.266;2023-04-25T17:52:43;33.87;;;19.53;;
20593;SDS011;10455;48.732;10.266;2023-04-25T17:57:47;33.70;;;19.23;;
20593;SDS011;10455;48.732;10.266;2023-04-25T18:02:50;34.50;;;19.63;;
20593;SDS011;10455;48.732;10.266;2023-04-25T18:07:52;37.20;;;22.83;;
20593;SDS011;10455;48.732;10.266;2023-04-25T18:12:54;87.40;;;41.37;;
20593;SDS011;10455;48.732;10.266;2023-04-25T18:17:57;60.37;;;35.20;;
20593;SDS011;10455;48.732;10.266;2023-04-25T18:23:02;47.47;;;26.30;;
20593;SDS011;10455;48.732;10.266;2023-04-25T18:28:03;44.20;;;25.83;;
20593;SDS011;10455;48.732;10.266;2023-04-25T18:33:07;41.23;;;24.53;;
20593;SDS011;10455;48.732;10.266;2023-04-25T18:38:09;37.67;;;23.67;;
20593;SDS011;10455;48.732;10.266;2023-04-25T18:43:11;40.97;;;23.87;;
20593;SDS011;10455;48.732;10.266;2023-04-25T18:48:15;46.07;;;24.67;;
20593;SDS011;10455;48.732;10.266;2023-04-25T18:53:16;35.53;;;21.83;;
20593;SDS011;10455;48.732;10.266;2023-04-25T18:58:18;99.43;;;64.47;;
20593;SDS011;10455;48.732;10.266;2023-04-25T19:03:23;49.03;;;33.30;;
20593;SDS011;10455;48.732;10.266;2023-04-25T19:08:25;44.17;;;26.57;;
20593;SDS011;10455;48.732;10.266;2023-04-25T19:13:27;45.43;;;27.03;;
20593;SDS011;10455;48.732;10.266;2023-04-25T19:18:30;75.67;;;50.73;;
20593;SDS011;10455;48.732;10.266;2023-04-25T19:23:32;45.93;;;29.73;;
20593;SDS011;10455;48.732;10.266;2023-04-25T19:28:34;53.13;;;31.07;;
20593;SDS011;10455;48.732;10.266;2023-04-25T19:33:37;52.60;;;28.83;;
20593;SDS011;10455;48.732;10.266;2023-04-25T19:38:40;40.83;;;22.87;;
20593;SDS011;10455;48.732;10.266;2023-04-25T19:43:41;43.83;;;24.00;;
20593;SDS011;10455;48.732;10.266;2023-04-25T19:48:45;51.63;;;26.77;;
20593;SDS011;10455;48.732;10.266;2023-04-25T19:53:47;39.20;;;22.67;;
20593;SDS011;10455;48.732;10.266;2023-04-25T19:58:48;47.63;;;20.67;;
20593;SDS011;10455;48.732;10.266;2023-04-25T20:03:52;41.00;;;21.73;;
20593;SDS011;10455;48.732;10.266;2023-04-25T20:08:54;37.97;;;20.73;;
20593;SDS011;10455;48.732;10.266;2023-04-25T20:13:56;39.07;;;21.90;;
20593;SDS011;10455;48.732;10.266;2023-04-25T20:19:00;41.10;;;22.37;;
20593;SDS011;10455;48.732;10.266;2023-04-25T20:24:02;43.63;;;23.20;;
20593;SDS011;10455;48.732;10.266;2023-04-25T20:29:04;43.50;;;21.60;;
20593;SDS011;10455;48.732;10.266;2023-04-25T20:34:07;48.73;;;24.67;;
20593;SDS011;10455;48.732;10.266;2023-04-25T20:39:09;44.37;;;22.97;;
20593;SDS011;10455;48.732;10.266;2023-04-25T20:44:11;41.67;;;26.47;;
20593;SDS011;10455;48.732;10.266;2023-04-25T20:49:14;49.00;;;24.27;;
20593;SDS011;10455;48.732;10.266;2023-04-25T20:54:16;34.10;;;18.70;;
20593;SDS011;10455;48.732;10.266;2023-04-25T20:59:18;40.53;;;21.40;;
20593;SDS011;10455;48.732;10.266;2023-04-25T21:04:21;40.20;;;21.43;;
20593;SDS011;10455;48.732;10.266;2023-04-25T21:09:23;44.80;;;23.93;;
20593;SDS011;10455;48.732;10.266;2023-04-25T21:14:25;40.93;;;20.00;;
20593;SDS011;10455;48.732;10.266;2023-04-25T21:19:29;43.47;;;22.13;;
20593;SDS011;10455;48.732;10.266;2023-04-25T21:24:31;39.03;;;20.93;;
20593;SDS011;10455;48.732;10.266;2023-04-25T21:29:33;44.07;;;20.10;;
20593;SDS011;10455;48.732;10.266;2023-04-25T21:34:36;48.27;;;22.43;;
20593;SDS011;10455;48.732;10.266;2023-04-25T21:39:38;47.07;;;23.00;;
20593;SDS011;10455;48.732;10.266;2023-04-25T21:44:40;43.47;;;22.17;;
20593;SDS011;10455;48.732;10.266;2023-04-25T21:49:43;46.03;;;23.10;;
20593;SDS011;10455;48.732;10.266;2023-04-25T21:54:45;65.43;;;27.83;;
20593;SDS011;10455;48.732;10.266;2023-04-25T21:59:47;42.33;;;23.43;;
20593;SDS011;10455;48.732;10.266;2023-04-25T22:04:50;49.27;;;25.37;;
20593;SDS011;10455;48.732;10.266;2023-04-25T22:09:52;36.07;;;21.93;;
20593;SDS011;10455;48.732;10.266;2023-04-25T22:14:54;54.30;;;25.67;;
20593;SDS011;10455;48.732;10.266;2023-04-25T22:19:58;52.53;;;26.27;;
20593;SDS011;10455;48.732;10.266;2023-04-25T22:25:16;51.00;;;27.30;;
20593;SDS011;10455;48.732;10.266;2023-04-25T22:30:31;61.70;;;30.13;;
20593;SDS011;10455;48.732;10.266;2023-04-25T22:35:38;56.20;;;26.87;;
20593;SDS011;10455;48.732;10.266;2023-04-25T22:40:40;54.40;;;26.43;;
20593;SDS011;10455;48.732;10.266;2023-04-25T22:45:42;47.77;;;24.83;;
20593;SDS011;10455;48.732;10.266;2023-04-25T22:50:45;47.03;;;25.87;;
20593;SDS011;10455;48.732;10.266;2023-04-25T22:55:53;59.90;;;27.23;;
20593;SDS011;10455;48.732;10.266;2023-04-25T23:00:56;48.53;;;25.10;;
20593;SDS011;10455;48.732;10.266;2023-04-25T23:05:59;52.83;;;26.87;;
20593;SDS011;10455;48.732;10.266;2023-04-25T23:11:04;59.33;;;26.83;;
20593;SDS011;10455;48.732;10.266;2023-04-25T23:16:07;60.80;;;27.23;;
20593;SDS011;10455;48.732;10.266;2023-04-25T23:21:11;47.27;;;23.47;;
20593;SDS011;10455;48.732;10.266;2023-04-25T23:26:13;44.67;;;22.47;;
20593;SDS011;10455;48.732;10.266;2023-04-25T23:31:15;47.40;;;24.57;;
20593;SDS011;10455;48.732;10.266;2023-04-25T23:36:19;59.87;;;26.13;;
20593;SDS011;10455;48.732;10.266;2023-04-25T23:41:21;63.17;;;27.57;;
20593;SDS011;10455;48.732;10.266;2023-04-25T23:46:24;68.27;;;29.73;;
20593;SDS011;10455;48.732;10.266;2023-04-25T23:51:28;45.70;;;23.77;;
20593;SDS011;10455;48.732;10.266;2023-04-25T23:56:31;55.30;;;24.50;;
